Terminal Aerodrome Forecast
Issued by NWS Wichita, KS

Home | Current Version | Previous Version | Graphics & Text | Print | Product List | Glossary On
Versions: 1 2 3 4 5 6 7 8 9 10 11 12 13 14 15 16 17 18 19 20 21 22 23 24
000
FTUS43 KICT 220237 AAC
TAFICT
TAF AMD
KICT 220237Z 2203/2224 06014KT 6SM -FZDZ SCT008 OVC015
     FM220400 05009KT 4SM -FZRA OVC008
     FM221200 05007KT 3SM -FZDZ BR OVC005
     FM221600 07006KT P6SM OVC012
     FM222200 14011KT P6SM BKN015=

USA.gov is the U.S. government's official web portal to all federal, state and local government web resources and services.